Acton, Canada
Current Conditions -  °F | °C
As of 7:02 AM on Saturday 01 Nov 2014 (Local Time) from CYKF Reporting Station
Light Snow Light Snow  
Wind Chill: 23°   Ceiling: 1600
Heat Index: 32°   Visibility: 9mi
Dew Point: 28°   Wind: 12mph
Humidity: 87%   Direction: 360°N
Pressure: 30.13"   Gusts: 21mph
Location:  43.63°N, 80.03°W
Report Text: CYKF 011102Z AUTO 36010G18KT 9SM -SNRA OVC016 00/M02 A3013 RMK SLP213
Loading
Personal Weather Stations






























Interactive Weather Map
Tropical Storm Tracking
New forecast layout! Learn more

10-Day Weather Forecast

Advertisements
Track Severe Weather on mobile